createdAt,value
2018-05-16T00:00:58.831Z,81.40
2018-05-16T00:02:35.432Z,81.50
2018-05-16T00:04:12.093Z,81.30
2018-05-16T00:05:48.698Z,81.40
2018-05-16T00:07:25.802Z,82.40
2018-05-16T00:09:03.039Z,82.10
2018-05-16T00:10:40.018Z,82.10
2018-05-16T00:12:16.562Z,81.70
2018-05-16T00:13:52.966Z,82.10
2018-05-16T00:15:29.603Z,82.00
2018-05-16T00:17:06.081Z,82.30
2018-05-16T00:18:42.381Z,82.90
2018-05-16T00:20:18.677Z,83.60
2018-05-16T00:21:55.114Z,84.20
2018-05-16T00:25:18.693Z,83.60
2018-05-16T00:26:55.581Z,83.80
2018-05-16T00:28:32.270Z,84.50
2018-05-16T00:30:09.201Z,84.70
2018-05-16T00:31:47.198Z,84.70
2018-05-16T00:33:27.911Z,84.50
2018-05-16T00:35:07.448Z,84.80
2018-05-16T00:36:45.209Z,85.70
2018-05-16T00:38:28.914Z,85.70
2018-05-16T00:40:05.871Z,85.80
2018-05-16T00:41:43.120Z,86.80
2018-05-16T00:43:20.584Z,87.80
2018-05-16T00:44:58.148Z,87.80
2018-05-16T00:46:34.915Z,87.10
2018-05-16T00:48:12.121Z,87.40
2018-05-16T00:49:48.925Z,87.40
2018-05-16T00:51:33.743Z,87.30
2018-05-16T00:53:12.685Z,87.70
2018-05-16T00:54:49.122Z,88.10
2018-05-16T00:56:26.522Z,88.10
2018-05-16T00:58:03.009Z,88.10
2018-05-16T00:59:39.641Z,88.60
2018-05-16T01:01:17.614Z,89.70
2018-05-16T01:02:54.465Z,89.40
2018-05-16T01:04:38.200Z,88.70
2018-05-16T01:06:16.828Z,89.20
2018-05-16T01:07:54.815Z,89.00
2018-05-16T01:09:32.377Z,89.40
2018-05-16T01:11:08.900Z,90.20
2018-05-16T01:12:45.339Z,90.80
2018-05-16T01:14:21.730Z,90.50
2018-05-16T01:15:58.815Z,90.60
2018-05-16T01:17:36.065Z,90.90
2018-05-16T01:19:12.795Z,91.00
2018-05-16T01:20:49.508Z,91.20
2018-05-16T01:22:26.025Z,91.50
2018-05-16T01:24:03.324Z,91.70
2018-05-16T01:25:40.062Z,91.80
2018-05-16T01:27:17.412Z,91.70
2018-05-16T01:28:54.806Z,91.60
2018-05-16T01:30:32.057Z,91.60
2018-05-16T01:32:08.462Z,91.40
2018-05-16T01:33:45.961Z,91.60
2018-05-16T01:35:22.481Z,91.60
2018-05-16T01:36:58.986Z,91.70
2018-05-16T01:38:35.449Z,91.30
2018-05-16T01:40:12.954Z,90.50
2018-05-16T01:41:50.434Z,90.60
2018-05-16T01:43:27.619Z,91.00
2018-05-16T01:45:06.026Z,90.90
2018-05-16T01:46:42.797Z,91.20
2018-05-16T01:48:19.260Z,91.30
2018-05-16T01:49:57.075Z,92.00
2018-05-16T01:51:37.834Z,92.40
2018-05-16T01:53:15.896Z,93.10
2018-05-16T01:54:52.443Z,94.00
2018-05-16T01:56:30.552Z,94.70
2018-05-16T01:58:07.873Z,94.60
2018-05-16T01:59:48.334Z,94.80
2018-05-16T02:01:25.114Z,95.30
2018-05-16T02:03:02.733Z,96.70
2018-05-16T02:04:42.173Z,98.50
2018-05-16T02:06:19.626Z,98.50
2018-05-16T02:08:00.318Z,97.70
2018-05-16T02:09:37.553Z,97.70
2018-05-16T02:11:14.226Z,98.30
2018-05-16T02:12:51.903Z,98.10
2018-05-16T02:14:29.134Z,98.50
2018-05-16T02:16:07.967Z,99.00
2018-05-16T02:17:45.983Z,99.20
2018-05-16T02:19:22.751Z,99.30
2018-05-16T02:20:59.841Z,99.40
2018-05-16T02:22:36.344Z,99.30
2018-05-16T02:24:13.662Z,99.90
2018-05-16T02:25:50.731Z,99.90
2018-05-16T02:27:27.049Z,99.90
2018-05-16T02:29:03.928Z,99.90
2018-05-16T02:30:41.677Z,99.90
2018-05-16T02:32:18.913Z,99.90
2018-05-16T02:33:56.806Z,99.90
2018-05-16T02:35:33.750Z,99.90
2018-05-16T02:37:10.322Z,99.90
2018-05-16T02:38:47.163Z,99.90
2018-05-16T02:40:25.124Z,99.90
2018-05-16T02:42:02.790Z,99.90
2018-05-16T02:43:39.416Z,99.90
2018-05-16T02:45:17.335Z,99.90
2018-05-16T02:46:54.063Z,99.90
2018-05-16T02:48:31.798Z,99.90
2018-05-16T02:50:08.994Z,99.90
2018-05-16T02:51:47.660Z,99.90
2018-05-16T02:53:25.174Z,99.90
2018-05-16T02:55:01.604Z,99.90
2018-05-16T02:56:39.571Z,99.90
2018-05-16T02:58:17.942Z,99.90
2018-05-16T02:59:54.270Z,99.90
2018-05-16T03:01:34.458Z,99.90
2018-05-16T03:03:10.850Z,99.90
2018-05-16T03:04:47.731Z,99.90
2018-05-16T03:06:24.374Z,99.90
2018-05-16T03:08:01.423Z,99.90
2018-05-16T03:09:38.942Z,99.90
2018-05-16T03:11:17.115Z,99.90
2018-05-16T03:12:53.844Z,99.90
2018-05-16T03:14:30.387Z,99.90
2018-05-16T03:16:07.816Z,99.90
2018-05-16T03:17:44.568Z,99.80
2018-05-16T03:19:21.139Z,98.70
2018-05-16T03:20:58.271Z,98.30
2018-05-16T03:22:35.106Z,97.80
2018-05-16T03:24:13.139Z,98.80
2018-05-16T03:25:50.374Z,98.70
2018-05-16T03:27:27.437Z,98.70
2018-05-16T03:29:03.855Z,97.60
2018-05-16T03:30:40.868Z,97.20
2018-05-16T03:32:17.405Z,97.10
2018-05-16T03:33:54.810Z,97.60
2018-05-16T03:35:31.601Z,97.70
2018-05-16T03:37:08.664Z,97.00
2018-05-16T03:38:45.222Z,96.70
2018-05-16T03:40:21.770Z,96.80
2018-05-16T03:41:59.418Z,96.20
2018-05-16T03:43:35.817Z,96.20
2018-05-16T03:45:14.054Z,95.90
2018-05-16T03:46:50.861Z,96.50
2018-05-16T03:48:28.788Z,97.30
2018-05-16T03:50:06.455Z,96.90
2018-05-16T03:51:43.500Z,96.90
2018-05-16T03:53:20.390Z,97.30
2018-05-16T03:54:57.790Z,97.80
2018-05-16T03:56:34.724Z,97.50
2018-05-16T04:00:31.091Z,96.90
2018-05-16T04:04:30.531Z,96.70
2018-05-16T04:06:08.223Z,98.70
2018-05-16T04:07:45.716Z,98.70
2018-05-16T04:09:23.125Z,99.90
2018-05-16T04:10:59.680Z,99.90
2018-05-16T04:12:38.547Z,99.90
2018-05-16T04:14:14.940Z,99.90
2018-05-16T04:15:51.676Z,99.90
2018-05-16T04:17:28.491Z,99.50
2018-05-16T04:19:07.749Z,99.90
2018-05-16T04:20:44.238Z,99.90
2018-05-16T04:22:20.809Z,99.30
2018-05-16T04:23:57.895Z,98.70
2018-05-16T04:25:34.878Z,97.90
2018-05-16T04:27:18.052Z,98.50
2018-05-16T04:28:59.689Z,99.30
2018-05-16T04:30:39.551Z,98.80
2018-05-16T04:32:17.887Z,98.80
2018-05-16T04:33:55.737Z,97.70
2018-05-16T04:35:32.273Z,97.80
2018-05-16T04:37:08.786Z,98.90
2018-05-16T04:38:45.519Z,99.00
2018-05-16T04:40:21.866Z,99.30
2018-05-16T04:41:58.339Z,99.20
2018-05-16T04:43:34.681Z,98.90
2018-05-16T04:45:15.158Z,99.10
2018-05-16T04:46:51.585Z,99.70
2018-05-16T04:48:27.964Z,99.90
2018-05-16T04:50:05.308Z,99.90
2018-05-16T04:51:49.001Z,99.90
2018-05-16T04:53:31.440Z,99.90
2018-05-16T04:55:12.337Z,99.90
2018-05-16T04:56:52.448Z,99.90
2018-05-16T04:58:32.540Z,99.90
2018-05-16T05:00:10.637Z,99.90
2018-05-16T05:01:54.870Z,99.50
2018-05-16T05:03:38.980Z,99.50
2018-05-16T05:05:18.252Z,98.80
2018-05-16T05:06:57.230Z,98.40
2018-05-16T05:08:39.298Z,97.40
2018-05-16T05:10:20.488Z,96.60
2018-05-16T05:11:58.140Z,94.70
2018-05-16T05:13:35.474Z,92.40
2018-05-16T05:15:13.316Z,92.30
2018-05-16T05:16:51.272Z,91.20
2018-05-16T05:18:28.135Z,91.20
2018-05-16T05:20:05.190Z,90.60
2018-05-16T05:21:41.544Z,90.90
2018-05-16T05:23:18.977Z,91.90
2018-05-16T05:24:59.017Z,91.70
2018-05-16T05:26:36.154Z,91.70
2018-05-16T05:28:23.926Z,87.70
2018-05-16T05:30:03.611Z,87.80
2018-05-16T05:31:42.009Z,90.00
2018-05-16T05:33:19.298Z,88.50
2018-05-16T05:34:55.732Z,88.60
2018-05-16T05:36:33.341Z,91.10
2018-05-16T05:38:10.946Z,91.10
2018-05-16T05:39:48.111Z,92.00
2018-05-16T05:41:25.669Z,90.70
2018-05-16T05:43:02.598Z,90.70
2018-05-16T05:44:39.073Z,89.20
2018-05-16T05:46:17.520Z,89.50
2018-05-16T05:47:54.464Z,89.50
2018-05-16T05:49:31.326Z,87.20
2018-05-16T05:51:07.695Z,86.80
2018-05-16T05:52:44.158Z,89.00
2018-05-16T05:55:59.597Z,91.60
2018-05-16T05:57:36.067Z,91.90
2018-05-16T05:59:12.577Z,91.30
2018-05-16T06:00:50.082Z,89.50
2018-05-16T06:02:27.070Z,89.40
2018-05-16T06:05:45.394Z,85.20
2018-05-16T06:07:22.399Z,84.00
2018-05-16T06:09:00.452Z,83.60
2018-05-16T06:10:37.177Z,83.50
2018-05-16T06:12:19.687Z,83.70
2018-05-16T06:13:56.024Z,82.60
2018-05-16T06:15:33.740Z,82.90
2018-05-16T06:17:11.118Z,84.30
2018-05-16T06:18:48.566Z,87.80
2018-05-16T06:20:27.874Z,89.80
2018-05-16T06:22:04.660Z,89.20
2018-05-16T06:23:41.110Z,89.10
2018-05-16T06:25:27.596Z,83.00
2018-05-16T06:27:04.801Z,79.90
2018-05-16T06:28:41.696Z,79.90
2018-05-16T06:30:19.350Z,78.90
2018-05-16T06:31:56.206Z,79.90
2018-05-16T06:33:34.086Z,79.20
2018-05-16T06:35:11.398Z,77.80
2018-05-16T06:36:48.528Z,75.00
2018-05-16T06:38:25.957Z,75.00
2018-05-16T06:40:02.475Z,76.80
2018-05-16T06:41:39.641Z,77.30
2018-05-16T06:43:19.734Z,77.60
2018-05-16T06:44:56.412Z,77.70
2018-05-16T06:46:33.035Z,79.30
2018-05-16T06:48:10.399Z,78.10
2018-05-16T06:49:46.905Z,78.10
2018-05-16T06:51:24.859Z,79.20
2018-05-16T06:53:02.285Z,81.30
2018-05-16T06:54:38.969Z,80.70
2018-05-16T06:56:20.827Z,81.00
2018-05-16T06:57:59.421Z,82.60
2018-05-16T06:59:39.718Z,81.70
2018-05-16T07:01:24.823Z,81.70
2018-05-16T07:03:01.218Z,81.50
2018-05-16T07:04:47.746Z,79.70
2018-05-16T07:06:24.478Z,79.60
2018-05-16T07:08:01.084Z,79.80
2018-05-16T07:09:37.754Z,82.00
2018-05-16T07:11:15.684Z,81.10
2018-05-16T07:13:00.595Z,81.10
2018-05-16T07:14:37.491Z,82.60
2018-05-16T07:16:14.341Z,82.40
2018-05-16T07:18:11.931Z,82.30
2018-05-16T07:21:19.722Z,87.50
2018-05-16T07:22:56.507Z,87.50
2018-05-16T07:24:32.867Z,86.90
2018-05-16T07:26:09.705Z,87.80
2018-05-16T07:27:46.053Z,86.80
2018-05-16T07:29:22.723Z,84.50
2018-05-16T07:30:59.966Z,84.70
2018-05-16T07:32:36.807Z,84.80
2018-05-16T07:34:13.142Z,83.80
2018-05-16T07:35:49.630Z,82.50
2018-05-16T07:37:26.122Z,82.80
2018-05-16T07:39:03.924Z,84.50
2018-05-16T07:40:41.217Z,85.00
2018-05-16T07:42:17.715Z,85.10
2018-05-16T07:43:54.899Z,85.50
2018-05-16T07:45:32.762Z,86.10
2018-05-16T07:47:09.796Z,86.00
2018-05-16T07:48:47.001Z,85.90
2018-05-16T07:50:24.174Z,85.90
2018-05-16T07:52:01.913Z,82.40
2018-05-16T07:53:38.388Z,82.20
2018-05-16T07:55:15.560Z,85.20
2018-05-16T07:56:51.856Z,85.20
2018-05-16T07:58:29.856Z,86.00
2018-05-16T08:00:06.354Z,85.50
2018-05-16T08:01:43.011Z,84.60
2018-05-16T08:03:19.448Z,83.40
2018-05-16T08:04:57.173Z,82.20
2018-05-16T08:06:33.888Z,82.20
2018-05-16T08:08:11.477Z,82.90
2018-05-16T08:09:48.655Z,83.60
2018-05-16T08:11:26.357Z,83.00
2018-05-16T08:13:03.426Z,81.70
2018-05-16T08:14:39.817Z,81.70
2018-05-16T08:16:17.285Z,80.40
2018-05-16T08:17:54.872Z,80.70
2018-05-16T08:19:32.054Z,81.10
2018-05-16T08:21:08.356Z,81.10
2018-05-16T08:22:45.145Z,81.50
2018-05-16T08:24:22.090Z,83.50
2018-05-16T08:25:59.000Z,82.70
2018-05-16T08:27:36.497Z,83.20
2018-05-16T08:29:12.817Z,83.30
2018-05-16T08:30:49.699Z,83.30
2018-05-16T08:32:27.073Z,82.10
2018-05-16T08:34:03.691Z,81.20
2018-05-16T08:35:40.770Z,80.30
2018-05-16T08:37:17.663Z,80.30
2018-05-16T08:38:54.023Z,80.00
2018-05-16T08:40:30.445Z,80.90
2018-05-16T08:42:07.266Z,81.80
2018-05-16T08:43:43.545Z,82.80
2018-05-16T08:45:22.083Z,83.50
2018-05-16T08:46:59.555Z,83.40
2018-05-16T08:48:36.463Z,84.00
2018-05-16T08:50:12.964Z,84.70
2018-05-16T08:51:49.343Z,84.40
2018-05-16T08:55:08.530Z,84.20
2018-05-16T08:56:44.913Z,83.60
2018-05-16T08:58:21.288Z,83.90
2018-05-16T08:59:57.753Z,84.70
2018-05-16T09:01:34.728Z,83.60
2018-05-16T09:03:11.253Z,84.60
2018-05-16T09:04:47.654Z,84.70
2018-05-16T09:06:24.609Z,85.70
2018-05-16T09:08:01.377Z,86.90
2018-05-16T09:09:37.924Z,86.50
2018-05-16T09:11:14.402Z,86.80
2018-05-16T09:12:51.551Z,85.20
2018-05-16T09:14:28.779Z,85.20
2018-05-16T09:16:05.416Z,86.60
2018-05-16T09:17:42.097Z,85.40
2018-05-16T09:19:18.758Z,83.50
2018-05-16T09:20:56.385Z,85.10
2018-05-16T09:22:32.798Z,85.20
2018-05-16T09:24:09.302Z,86.70
2018-05-16T09:25:45.717Z,87.50
2018-05-16T09:27:22.543Z,85.20
2018-05-16T09:28:59.041Z,84.80
2018-05-16T09:30:35.639Z,85.20
2018-05-16T09:32:12.792Z,85.30
2018-05-16T09:33:49.654Z,85.30
2018-05-16T09:35:26.013Z,86.50
2018-05-16T09:37:02.379Z,87.30
2018-05-16T09:38:39.140Z,88.20
2018-05-16T09:40:16.455Z,85.70
2018-05-16T09:41:52.817Z,83.40
2018-05-16T09:43:30.047Z,82.40
2018-05-16T09:45:06.460Z,82.40
2018-05-16T09:46:43.796Z,81.80
2018-05-16T09:48:20.892Z,84.20
2018-05-16T09:49:57.198Z,84.30
2018-05-16T09:51:34.121Z,86.50
2018-05-16T09:53:11.173Z,85.70
2018-05-16T09:54:47.535Z,86.20
2018-05-16T09:56:24.822Z,85.40
2018-05-16T09:58:01.983Z,81.70
2018-05-16T09:59:38.432Z,81.70
2018-05-16T10:01:15.753Z,80.80
2018-05-16T10:02:52.544Z,81.40
2018-05-16T10:04:28.896Z,83.60
2018-05-16T10:06:05.652Z,83.30
2018-05-16T10:07:42.030Z,82.50
2018-05-16T10:09:18.406Z,83.60
2018-05-16T10:10:54.731Z,82.80
2018-05-16T10:12:32.227Z,82.00
2018-05-16T10:14:08.582Z,82.00
2018-05-16T10:15:45.173Z,81.70
2018-05-16T10:17:21.479Z,81.70
2018-05-16T10:18:58.422Z,81.80
2018-05-16T10:20:34.669Z,81.90
2018-05-16T10:22:10.990Z,82.10
2018-05-16T10:23:48.139Z,81.60
2018-05-16T10:25:25.682Z,81.00
2018-05-16T10:27:02.259Z,80.90
2018-05-16T10:28:38.509Z,80.60
2018-05-16T10:30:17.768Z,84.70
2018-05-16T10:31:54.808Z,84.70
2018-05-16T10:33:32.153Z,84.40
2018-05-16T10:35:08.733Z,84.40
2018-05-16T10:36:45.020Z,83.50
2018-05-16T10:38:23.186Z,84.70
2018-05-16T10:39:59.507Z,84.70
2018-05-16T10:41:35.816Z,83.70
2018-05-16T10:43:12.241Z,82.50
2018-05-16T10:44:48.578Z,83.40
2018-05-16T10:46:25.911Z,82.60
2018-05-16T10:48:02.291Z,82.70
2018-05-16T10:51:24.455Z,80.80
2018-05-16T10:53:01.558Z,83.30
2018-05-16T10:54:37.868Z,83.30
2018-05-16T10:56:14.537Z,83.60
2018-05-16T10:57:50.879Z,84.60
2018-05-16T10:59:27.286Z,84.90
2018-05-16T11:01:03.789Z,84.10
2018-05-16T11:02:40.505Z,85.70
2018-05-16T11:04:16.855Z,87.50
2018-05-16T11:05:53.307Z,90.10
2018-05-16T11:07:29.550Z,88.50
2018-05-16T11:09:07.273Z,90.30
2018-05-16T11:10:44.846Z,89.00
2018-05-16T11:12:21.186Z,88.00
2018-05-16T11:13:57.525Z,87.50
2018-05-16T11:15:34.591Z,87.60
2018-05-16T11:17:11.715Z,86.40
2018-05-16T11:18:47.987Z,86.40
2018-05-16T11:20:24.379Z,86.90
2018-05-16T11:22:01.169Z,85.40
2018-05-16T11:23:38.226Z,83.60
2018-05-16T11:25:14.561Z,83.60
2018-05-16T11:26:51.914Z,84.20
2018-05-16T11:28:28.731Z,84.50
2018-05-16T11:30:05.198Z,84.90
2018-05-16T11:31:41.869Z,86.40
2018-05-16T11:33:18.264Z,86.30
2018-05-16T11:34:55.877Z,84.50
2018-05-16T11:36:32.236Z,84.60
2018-05-16T11:38:08.578Z,86.20
2018-05-16T11:39:45.621Z,85.80
2018-05-16T11:41:22.281Z,85.70
2018-05-16T11:42:58.576Z,87.60
2018-05-16T11:44:34.949Z,85.50
2018-05-16T11:46:11.489Z,86.10
2018-05-16T11:47:49.043Z,86.40
2018-05-16T11:49:25.374Z,86.30
2018-05-16T11:51:01.724Z,83.70
2018-05-16T11:52:38.809Z,85.60
2018-05-16T11:54:16.127Z,85.60
2018-05-16T11:55:52.426Z,85.60
2018-05-16T11:57:28.671Z,84.80
2018-05-16T11:59:05.023Z,83.20
2018-05-16T12:00:41.633Z,79.80
2018-05-16T12:02:18.687Z,81.50
2018-05-16T12:03:55.654Z,81.50
2018-05-16T12:05:31.984Z,82.70
2018-05-16T12:07:08.677Z,81.60
2018-05-16T12:08:45.118Z,83.70
2018-05-16T12:10:23.200Z,79.50
2018-05-16T12:11:59.501Z,79.50
2018-05-16T12:13:36.382Z,80.10
2018-05-16T12:15:12.708Z,83.10
2018-05-16T12:16:52.874Z,84.00
2018-05-16T12:20:05.272Z,83.80
2018-05-16T12:21:41.736Z,83.70
2018-05-16T12:23:17.976Z,83.50
2018-05-16T12:24:55.049Z,84.30
2018-05-16T12:26:31.711Z,84.30
2018-05-16T12:28:08.745Z,85.40
2018-05-16T12:29:44.995Z,85.40
2018-05-16T12:31:21.386Z,85.10
2018-05-16T12:32:59.283Z,86.10
2018-05-16T12:34:35.765Z,85.50
2018-05-16T12:36:12.132Z,85.50
2018-05-16T12:37:48.547Z,85.60
2018-05-16T12:39:25.312Z,86.40
2018-05-16T12:41:01.766Z,87.30
2018-05-16T12:42:39.182Z,86.90
2018-05-16T12:44:15.533Z,85.80
2018-05-16T12:45:53.724Z,85.90
2018-05-16T12:47:31.098Z,85.60
2018-05-16T12:49:07.445Z,85.50
2018-05-16T12:50:44.192Z,85.10
2018-05-16T12:52:21.352Z,86.00
2018-05-16T12:53:57.750Z,87.30
2018-05-16T12:55:34.912Z,86.10
2018-05-16T12:57:11.253Z,86.20
2018-05-16T12:58:48.165Z,87.80
2018-05-16T13:00:26.446Z,90.10
2018-05-16T13:02:02.776Z,89.10
2018-05-16T13:03:39.332Z,86.60
2018-05-16T13:05:16.400Z,87.00
2018-05-16T13:06:54.648Z,85.60
2018-05-16T13:08:30.967Z,85.60
2018-05-16T13:10:07.267Z,86.80
2018-05-16T13:11:45.079Z,87.10
2018-05-16T13:13:23.273Z,87.70
2018-05-16T13:15:00.975Z,88.30
2018-05-16T13:16:37.541Z,88.40
2018-05-16T13:18:15.261Z,89.10
2018-05-16T13:19:51.630Z,89.10
2018-05-16T13:21:29.734Z,86.40
2018-05-16T13:23:07.269Z,86.30
2018-05-16T13:24:44.988Z,86.00
2018-05-16T13:26:21.256Z,84.80
2018-05-16T13:27:59.931Z,83.90
2018-05-16T13:29:37.488Z,84.80
2018-05-16T13:31:16.818Z,86.10
2018-05-16T13:34:40.660Z,87.30
2018-05-16T13:36:20.042Z,85.90
2018-05-16T13:37:57.746Z,85.90
2018-05-16T13:39:34.193Z,87.30
2018-05-16T13:41:10.539Z,87.50
2018-05-16T13:42:46.978Z,89.50
2018-05-16T13:44:23.394Z,90.00
2018-05-16T13:46:00.865Z,88.20
2018-05-16T13:47:38.707Z,89.50
2018-05-16T13:49:15.272Z,90.10
2018-05-16T13:50:51.922Z,89.50
2018-05-16T13:52:28.272Z,89.40
2018-05-16T13:54:05.252Z,89.50
2018-05-16T13:55:41.598Z,88.60
2018-05-16T13:57:18.352Z,89.40
2018-05-16T13:58:55.540Z,90.00
2018-05-16T14:00:32.968Z,90.60
2018-05-16T14:02:09.385Z,90.60
2018-05-16T14:03:46.508Z,90.30
2018-05-16T14:05:22.920Z,90.00
2018-05-16T14:07:00.871Z,88.50
2018-05-16T14:08:37.190Z,88.60
2018-05-16T14:10:14.752Z,88.30
2018-05-16T14:11:51.259Z,88.30
2018-05-16T14:13:27.598Z,88.30
2018-05-16T14:15:04.866Z,88.80
2018-05-16T14:16:41.953Z,88.10
2018-05-16T14:18:18.413Z,89.50
2018-05-16T14:19:54.874Z,91.00
2018-05-16T14:21:31.276Z,90.50
2018-05-16T14:23:07.964Z,90.40
2018-05-16T14:24:50.711Z,90.90
2018-05-16T14:26:27.226Z,91.10
2018-05-16T14:28:03.603Z,91.00
2018-05-16T14:29:39.991Z,91.10
2018-05-16T14:31:16.589Z,91.10
2018-05-16T14:32:53.229Z,91.40
2018-05-16T14:34:29.562Z,91.80
2018-05-16T14:36:06.493Z,92.40
2018-05-16T14:37:43.711Z,92.20
2018-05-16T14:39:20.142Z,92.20
2018-05-16T14:40:56.490Z,91.50
2018-05-16T14:42:33.125Z,92.00
2018-05-16T14:44:10.350Z,92.10
2018-05-16T14:45:47.413Z,92.00
2018-05-16T14:47:23.944Z,91.90
2018-05-16T14:49:00.784Z,91.80
2018-05-16T14:50:37.263Z,91.80
2018-05-16T14:52:13.705Z,91.70
2018-05-16T14:53:50.800Z,92.10
2018-05-16T14:55:27.697Z,92.00
2018-05-16T14:57:04.126Z,92.10
2018-05-16T14:58:40.460Z,92.50
2018-05-16T15:00:19.511Z,92.80
2018-05-16T15:01:59.072Z,93.60
2018-05-16T15:03:39.169Z,93.50
2018-05-16T15:05:16.063Z,94.60
2018-05-16T15:06:53.255Z,94.10
2018-05-16T15:08:30.773Z,94.20
2018-05-16T15:10:07.190Z,94.20
2018-05-16T15:11:44.356Z,94.60
2018-05-16T15:13:20.723Z,94.60
2018-05-16T15:14:58.455Z,93.70
2018-05-16T15:16:35.172Z,93.70
2018-05-16T15:18:11.570Z,93.80
2018-05-16T15:19:48.035Z,93.60
2018-05-16T15:21:25.779Z,93.30
2018-05-16T15:23:02.301Z,93.10
2018-05-16T15:24:38.655Z,92.50
2018-05-16T15:26:15.017Z,91.20
2018-05-16T15:27:53.059Z,89.40
2018-05-16T15:29:29.361Z,89.40
2018-05-16T15:31:05.999Z,89.20
2018-05-16T15:32:42.601Z,88.30
2018-05-16T15:34:19.551Z,88.50
2018-05-16T15:35:58.425Z,87.70
2018-05-16T15:37:36.796Z,87.10
2018-05-16T15:39:14.219Z,86.20
2018-05-16T15:40:50.577Z,86.20
2018-05-16T15:42:27.032Z,87.70
2018-05-16T15:44:04.550Z,88.30
2018-05-16T15:45:41.554Z,88.30
2018-05-16T15:47:18.372Z,87.30
2018-05-16T15:48:55.692Z,86.60
2018-05-16T15:50:32.513Z,85.90
2018-05-16T15:52:09.826Z,86.90
2018-05-16T15:53:47.027Z,86.00
2018-05-16T15:55:23.537Z,87.00
2018-05-16T15:57:00.271Z,88.20
2018-05-16T15:58:37.280Z,87.70
2018-05-16T16:00:15.546Z,88.50
2018-05-16T16:01:52.352Z,89.60
2018-05-16T16:03:29.909Z,90.20
2018-05-16T16:05:06.466Z,89.50
2018-05-16T16:06:43.961Z,90.20
2018-05-16T16:08:21.656Z,90.70
2018-05-16T16:09:59.661Z,90.70
2018-05-16T16:11:36.029Z,90.20
2018-05-16T16:13:12.643Z,90.80
2018-05-16T16:14:50.909Z,90.90
2018-05-16T16:16:31.179Z,90.80
2018-05-16T16:18:08.342Z,91.20
2018-05-16T16:19:46.707Z,91.10
2018-05-16T16:21:23.665Z,91.40
2018-05-16T16:23:06.448Z,91.60
2018-05-16T16:24:46.761Z,92.20
2018-05-16T16:26:23.408Z,93.20
2018-05-16T16:27:59.770Z,93.40
2018-05-16T16:29:36.469Z,93.40
2018-05-16T16:31:13.464Z,94.50
2018-05-16T16:32:54.572Z,94.40
2018-05-16T16:34:31.201Z,94.40
2018-05-16T16:36:10.985Z,94.40
2018-05-16T16:37:47.778Z,94.60
2018-05-16T16:39:33.573Z,94.80
2018-05-16T16:41:10.592Z,94.90
2018-05-16T16:42:48.537Z,95.30
2018-05-16T16:44:26.202Z,94.50
2018-05-16T16:46:03.148Z,94.50
2018-05-16T16:47:39.818Z,94.40
2018-05-16T16:49:16.821Z,94.10
2018-05-16T16:50:53.690Z,93.20
2018-05-16T16:52:30.806Z,93.50
2018-05-16T16:54:07.593Z,93.50
2018-05-16T16:55:46.641Z,93.40
2018-05-16T16:57:23.399Z,93.50
2018-05-16T16:59:00.053Z,93.10
2018-05-16T17:00:37.092Z,92.90
2018-05-16T17:02:22.002Z,93.70
2018-05-16T17:03:58.363Z,93.70
2018-05-16T17:05:34.715Z,93.00
2018-05-16T17:07:11.998Z,92.80
2018-05-16T17:08:48.862Z,92.30
2018-05-16T17:10:25.200Z,92.60
2018-05-16T17:12:01.754Z,92.70
2018-05-16T17:13:38.073Z,92.90
2018-05-16T17:15:17.664Z,96.90
2018-05-16T17:16:55.027Z,96.70
2018-05-16T17:18:32.529Z,96.50
2018-05-16T17:20:12.169Z,96.00
2018-05-16T17:21:51.657Z,96.00
2018-05-16T17:23:27.960Z,97.70
2018-05-16T17:25:04.253Z,99.90
2018-05-16T17:26:40.607Z,99.90
2018-05-16T17:28:17.320Z,99.90
2018-05-16T17:29:53.950Z,99.90
2018-05-16T17:31:30.538Z,99.90
2018-05-16T17:33:07.650Z,99.90
2018-05-16T17:34:45.988Z,99.90
2018-05-16T17:36:22.249Z,99.90
2018-05-16T17:37:58.654Z,99.90
2018-05-16T17:39:35.033Z,99.90
2018-05-16T17:41:13.434Z,99.90
2018-05-16T17:42:49.867Z,99.90
2018-05-16T17:44:26.935Z,99.90
2018-05-16T17:46:03.408Z,99.90
2018-05-16T17:47:40.415Z,99.90
2018-05-16T17:49:16.970Z,99.90
2018-05-16T17:50:58.594Z,99.90
2018-05-16T17:52:35.327Z,99.90
2018-05-16T17:54:12.357Z,99.90
2018-05-16T17:55:48.810Z,99.90
2018-05-16T17:57:25.334Z,99.90
2018-05-16T17:59:01.636Z,99.90
2018-05-16T18:00:38.566Z,99.90
2018-05-16T18:02:16.014Z,99.90
2018-05-16T18:03:52.552Z,99.90
2018-05-16T18:05:28.960Z,99.90
2018-05-16T18:07:05.890Z,99.90
2018-05-16T18:08:42.169Z,99.90
2018-05-16T18:10:18.560Z,99.90
2018-05-16T18:11:54.844Z,99.90
2018-05-16T18:13:52.767Z,99.90
2018-05-16T18:15:53.331Z,99.90
2018-05-16T18:17:32.105Z,99.90
2018-05-16T18:19:08.988Z,99.90
2018-05-16T18:20:45.363Z,99.90
2018-05-16T18:22:21.807Z,99.90
2018-05-16T18:23:58.193Z,99.90
2018-05-16T18:25:35.249Z,99.90
2018-05-16T18:27:12.404Z,99.90
2018-05-16T18:28:52.178Z,99.90
2018-05-16T18:30:31.279Z,99.90
2018-05-16T18:32:08.891Z,99.90
2018-05-16T18:33:45.564Z,99.90
2018-05-16T18:35:22.645Z,99.90
2018-05-16T18:36:59.445Z,99.90
2018-05-16T18:38:36.754Z,99.90
2018-05-16T18:40:13.778Z,99.90
2018-05-16T18:41:50.503Z,99.90
2018-05-16T18:43:28.389Z,99.90
2018-05-16T18:45:05.247Z,99.90
2018-05-16T18:46:41.869Z,99.90
2018-05-16T18:48:21.231Z,99.90
2018-05-16T18:49:58.463Z,99.90
2018-05-16T18:51:35.272Z,99.90
2018-05-16T18:53:12.393Z,99.90
2018-05-16T18:54:49.618Z,99.90
2018-05-16T18:56:25.965Z,99.90
2018-05-16T18:58:03.615Z,99.90
2018-05-16T18:59:40.821Z,99.90
2018-05-16T19:01:17.397Z,99.90
2018-05-16T19:02:54.017Z,99.90
2018-05-16T19:04:30.901Z,99.90
2018-05-16T19:06:08.063Z,99.90
2018-05-16T19:07:44.455Z,99.90
2018-05-16T19:09:21.644Z,99.90
2018-05-16T19:10:58.452Z,99.90
2018-05-16T19:12:34.872Z,99.90
2018-05-16T19:14:11.986Z,99.90
2018-05-16T19:15:49.104Z,99.90
2018-05-16T19:17:26.410Z,99.90
2018-05-16T19:19:02.814Z,99.90
2018-05-16T19:20:39.231Z,99.90
2018-05-16T19:22:15.937Z,99.90
2018-05-16T19:23:52.877Z,99.90
2018-05-16T19:25:30.033Z,99.90
2018-05-16T19:27:06.999Z,99.90
2018-05-16T19:28:43.338Z,99.90
2018-05-16T19:30:21.394Z,99.90
2018-05-16T19:31:58.791Z,99.90
2018-05-16T19:33:35.980Z,99.90
2018-05-16T19:35:13.408Z,99.90
2018-05-16T19:36:50.281Z,99.90
2018-05-16T19:38:26.707Z,99.90
2018-05-16T19:40:03.139Z,99.90
2018-05-16T19:41:40.226Z,99.90
2018-05-16T19:43:16.978Z,99.90
2018-05-16T19:44:53.440Z,99.90
2018-05-16T19:46:30.069Z,99.90
2018-05-16T19:48:06.538Z,99.90
2018-05-16T19:49:43.222Z,99.90
2018-05-16T19:51:19.619Z,99.90
2018-05-16T19:52:56.142Z,99.90
2018-05-16T19:54:33.718Z,99.90
2018-05-16T19:56:10.772Z,99.90
2018-05-16T19:57:47.871Z,99.90
2018-05-16T19:59:25.162Z,99.90
2018-05-16T20:01:01.853Z,99.90
2018-05-16T20:02:39.275Z,99.90
2018-05-16T20:04:17.094Z,99.90
2018-05-16T20:05:54.519Z,99.90
2018-05-16T20:07:31.978Z,99.90
2018-05-16T20:09:10.774Z,99.90
2018-05-16T20:10:48.891Z,99.90
2018-05-16T20:12:25.989Z,99.50
2018-05-16T20:14:02.432Z,99.60
2018-05-16T20:15:42.147Z,99.90
2018-05-16T20:17:21.604Z,99.90
2018-05-16T20:18:58.908Z,99.90
2018-05-16T20:20:35.999Z,99.90
2018-05-16T20:22:12.698Z,99.90
2018-05-16T20:23:49.112Z,99.90
2018-05-16T20:25:25.479Z,99.50
2018-05-16T20:27:02.636Z,99.60
2018-05-16T20:28:39.654Z,99.60
2018-05-16T20:30:19.262Z,99.70
2018-05-16T20:31:56.887Z,99.40
2018-05-16T20:33:33.695Z,99.40
2018-05-16T20:35:10.998Z,99.90
2018-05-16T20:36:47.551Z,99.40
2018-05-16T20:38:23.923Z,99.10
2018-05-16T20:40:00.481Z,99.80
2018-05-16T20:41:37.259Z,99.90
2018-05-16T20:43:13.727Z,99.80
2018-05-16T20:44:50.217Z,99.60
2018-05-16T20:46:26.962Z,99.70
2018-05-16T20:48:04.716Z,99.70
2018-05-16T20:49:41.067Z,99.70
2018-05-16T20:51:17.399Z,99.50
2018-05-16T20:52:54.595Z,99.90
2018-05-16T20:54:31.495Z,99.90
2018-05-16T20:56:07.989Z,99.20
2018-05-16T20:57:45.062Z,98.40
2018-05-16T20:59:21.418Z,98.30
2018-05-16T21:00:58.498Z,98.70
2018-05-16T21:02:35.683Z,99.90
2018-05-16T21:04:11.973Z,99.90
2018-05-16T21:05:48.366Z,99.90
2018-05-16T21:07:25.196Z,99.90
2018-05-16T21:09:02.384Z,99.10
2018-05-16T21:10:39.603Z,99.00
2018-05-16T21:12:16.582Z,99.00